Dowell, Illinois
Current Conditions -  °F | °C
As of 1:52 PM on Wednesday 28 Jan 2015 (Local Time) from KMDH Reporting Station
Scattered Clouds Scattered Clouds  
Wind Chill: 39°   Ceiling: Unl
Heat Index: 46°   Visibility: 10mi
Dew Point: 30°   Wind: 16mph
Humidity: 54%   Direction: 180°S
Pressure: 30.16"   Gusts: NA
Location:  37.94°N, 89.24°W
Report Text: KMDH 281952Z 18014KT 10SM SCT250 08/M01 A3016 RMK AO2 SLP217 T00781011
Loading
Personal Weather Stations






























Interactive Weather Map New forecast layout! Learn more

10-Day Weather Forecast

Advertisements
Track Severe Weather on mobile